sensor_id;sensor_type;location;lat;lon;timestamp;P1;durP1;ratioP1;P2;durP2;ratioP2
35558;SDS011;21661;50.794;-1.066;2023-10-09T00:00:10;27.45;;;16.83;;
35558;SDS011;21661;50.794;-1.066;2023-10-09T00:02:56;25.83;;;16.60;;
35558;SDS011;21661;50.794;-1.066;2023-10-09T00:05:25;23.13;;;14.77;;
35558;SDS011;21661;50.794;-1.066;2023-10-09T00:07:56;22.77;;;15.93;;
35558;SDS011;21661;50.794;-1.066;2023-10-09T00:10:22;28.15;;;16.30;;
35558;SDS011;21661;50.794;-1.066;2023-10-09T00:12:51;24.55;;;16.00;;
35558;SDS011;21661;50.794;-1.066;2023-10-09T00:15:16;23.27;;;16.23;;
35558;SDS011;21661;50.794;-1.066;2023-10-09T00:17:43;23.73;;;15.63;;
35558;SDS011;21661;50.794;-1.066;2023-10-09T00:20:12;26.05;;;16.88;;
35558;SDS011;21661;50.794;-1.066;2023-10-09T00:22:45;25.75;;;15.43;;
35558;SDS011;21661;50.794;-1.066;2023-10-09T00:25:11;26.13;;;16.95;;
35558;SDS011;21661;50.794;-1.066;2023-10-09T00:27:38;24.23;;;15.65;;
35558;SDS011;21661;50.794;-1.066;2023-10-09T00:30:07;26.83;;;17.13;;
35558;SDS011;21661;50.794;-1.066;2023-10-09T00:32:40;27.85;;;16.85;;
35558;SDS011;21661;50.794;-1.066;2023-10-09T00:35:13;25.73;;;17.38;;
35558;SDS011;21661;50.794;-1.066;2023-10-09T00:37:57;27.30;;;16.85;;
35558;SDS011;21661;50.794;-1.066;2023-10-09T00:40:31;26.02;;;16.60;;
35558;SDS011;21661;50.794;-1.066;2023-10-09T00:42:59;27.30;;;16.98;;
35558;SDS011;21661;50.794;-1.066;2023-10-09T00:45:31;29.08;;;17.80;;
35558;SDS011;21661;50.794;-1.066;2023-10-09T00:47:57;28.52;;;17.48;;
35558;SDS011;21661;50.794;-1.066;2023-10-09T00:50:26;28.48;;;16.77;;
35558;SDS011;21661;50.794;-1.066;2023-10-09T00:52:52;25.50;;;17.42;;
35558;SDS011;21661;50.794;-1.066;2023-10-09T00:55:36;23.95;;;16.42;;
35558;SDS011;21661;50.794;-1.066;2023-10-09T00:58:08;25.65;;;17.63;;
35558;SDS011;21661;50.794;-1.066;2023-10-09T01:00:39;26.13;;;16.70;;
35558;SDS011;21661;50.794;-1.066;2023-10-09T01:03:09;28.10;;;18.00;;
35558;SDS011;21661;50.794;-1.066;2023-10-09T01:05:43;24.70;;;17.30;;
35558;SDS011;21661;50.794;-1.066;2023-10-09T01:08:17;27.08;;;17.80;;
35558;SDS011;21661;50.794;-1.066;2023-10-09T01:10:53;26.88;;;18.50;;
35558;SDS011;21661;50.794;-1.066;2023-10-09T01:13:25;29.77;;;18.55;;
35558;SDS011;21661;50.794;-1.066;2023-10-09T01:15:53;27.63;;;18.35;;
35558;SDS011;21661;50.794;-1.066;2023-10-09T01:18:23;26.50;;;18.45;;
35558;SDS011;21661;50.794;-1.066;2023-10-09T01:20:56;25.70;;;18.92;;
35558;SDS011;21661;50.794;-1.066;2023-10-09T01:23:22;30.52;;;17.88;;
35558;SDS011;21661;50.794;-1.066;2023-10-09T01:25:48;27.58;;;18.20;;
35558;SDS011;21661;50.794;-1.066;2023-10-09T01:28:15;26.88;;;18.10;;
35558;SDS011;21661;50.794;-1.066;2023-10-09T01:30:41;23.80;;;17.08;;
35558;SDS011;21661;50.794;-1.066;2023-10-09T01:33:08;28.55;;;17.98;;
35558;SDS011;21661;50.794;-1.066;2023-10-09T01:35:47;25.35;;;18.02;;
35558;SDS011;21661;50.794;-1.066;2023-10-09T01:38:15;25.27;;;17.35;;
35558;SDS011;21661;50.794;-1.066;2023-10-09T01:40:41;26.65;;;16.90;;
35558;SDS011;21661;50.794;-1.066;2023-10-09T01:43:08;25.67;;;16.88;;
35558;SDS011;21661;50.794;-1.066;2023-10-09T01:45:35;25.17;;;17.42;;
35558;SDS011;21661;50.794;-1.066;2023-10-09T01:48:08;21.73;;;16.60;;
35558;SDS011;21661;50.794;-1.066;2023-10-09T01:50:34;22.83;;;17.02;;
35558;SDS011;21661;50.794;-1.066;2023-10-09T01:53:06;26.30;;;17.65;;
35558;SDS011;21661;50.794;-1.066;2023-10-09T01:55:33;26.65;;;16.52;;
35558;SDS011;21661;50.794;-1.066;2023-10-09T01:58:07;24.90;;;16.48;;
35558;SDS011;21661;50.794;-1.066;2023-10-09T02:00:49;24.45;;;15.70;;
35558;SDS011;21661;50.794;-1.066;2023-10-09T02:03:20;23.10;;;16.52;;
35558;SDS011;21661;50.794;-1.066;2023-10-09T02:05:52;23.98;;;15.80;;
35558;SDS011;21661;50.794;-1.066;2023-10-09T02:08:29;22.55;;;15.50;;
35558;SDS011;21661;50.794;-1.066;2023-10-09T02:10:55;23.85;;;16.52;;
35558;SDS011;21661;50.794;-1.066;2023-10-09T02:13:21;22.67;;;15.77;;
35558;SDS011;21661;50.794;-1.066;2023-10-09T02:16:07;23.30;;;15.77;;
35558;SDS011;21661;50.794;-1.066;2023-10-09T02:18:39;23.33;;;16.17;;
35558;SDS011;21661;50.794;-1.066;2023-10-09T02:21:17;25.13;;;16.20;;
35558;SDS011;21661;50.794;-1.066;2023-10-09T02:23:53;22.63;;;15.40;;
35558;SDS011;21661;50.794;-1.066;2023-10-09T02:26:22;23.42;;;15.88;;
35558;SDS011;21661;50.794;-1.066;2023-10-09T02:28:57;23.52;;;16.83;;
35558;SDS011;21661;50.794;-1.066;2023-10-09T02:31:29;23.27;;;16.55;;
35558;SDS011;21661;50.794;-1.066;2023-10-09T02:34:05;24.80;;;16.48;;
35558;SDS011;21661;50.794;-1.066;2023-10-09T02:36:35;21.55;;;15.65;;
35558;SDS011;21661;50.794;-1.066;2023-10-09T02:39:23;26.88;;;16.63;;
35558;SDS011;21661;50.794;-1.066;2023-10-09T02:41:51;25.48;;;15.80;;
35558;SDS011;21661;50.794;-1.066;2023-10-09T02:44:20;22.40;;;16.00;;
35558;SDS011;21661;50.794;-1.066;2023-10-09T02:46:50;24.52;;;16.10;;
35558;SDS011;21661;50.794;-1.066;2023-10-09T02:49:16;25.85;;;17.05;;
35558;SDS011;21661;50.794;-1.066;2023-10-09T02:51:41;24.23;;;16.67;;
35558;SDS011;21661;50.794;-1.066;2023-10-09T02:54:07;24.08;;;15.48;;
35558;SDS011;21661;50.794;-1.066;2023-10-09T02:56:48;23.98;;;16.45;;
35558;SDS011;21661;50.794;-1.066;2023-10-09T02:59:21;26.13;;;15.98;;
35558;SDS011;21661;50.794;-1.066;2023-10-09T03:01:48;24.30;;;15.57;;
35558;SDS011;21661;50.794;-1.066;2023-10-09T03:04:14;21.52;;;15.30;;
35558;SDS011;21661;50.794;-1.066;2023-10-09T03:06:40;21.88;;;15.60;;
35558;SDS011;21661;50.794;-1.066;2023-10-09T03:09:19;25.60;;;16.23;;
35558;SDS011;21661;50.794;-1.066;2023-10-09T03:11:52;24.52;;;16.17;;
35558;SDS011;21661;50.794;-1.066;2023-10-09T03:14:27;25.73;;;16.50;;
35558;SDS011;21661;50.794;-1.066;2023-10-09T03:16:54;23.90;;;16.23;;
35558;SDS011;21661;50.794;-1.066;2023-10-09T03:19:24;21.63;;;15.95;;
35558;SDS011;21661;50.794;-1.066;2023-10-09T03:21:51;23.00;;;16.30;;
35558;SDS011;21661;50.794;-1.066;2023-10-09T03:24:17;24.38;;;16.38;;
35558;SDS011;21661;50.794;-1.066;2023-10-09T03:26:43;23.70;;;15.52;;
35558;SDS011;21661;50.794;-1.066;2023-10-09T03:29:12;22.85;;;16.33;;
35558;SDS011;21661;50.794;-1.066;2023-10-09T03:31:37;23.60;;;15.88;;
35558;SDS011;21661;50.794;-1.066;2023-10-09T03:34:03;23.98;;;15.90;;
35558;SDS011;21661;50.794;-1.066;2023-10-09T03:36:29;22.60;;;15.70;;
35558;SDS011;21661;50.794;-1.066;2023-10-09T03:39:03;23.08;;;15.73;;
35558;SDS011;21661;50.794;-1.066;2023-10-09T03:42:07;20.92;;;15.10;;
35558;SDS011;21661;50.794;-1.066;2023-10-09T03:44:44;21.52;;;15.30;;
35558;SDS011;21661;50.794;-1.066;2023-10-09T03:47:14;25.38;;;15.35;;
35558;SDS011;21661;50.794;-1.066;2023-10-09T03:49:41;25.60;;;15.88;;
35558;SDS011;21661;50.794;-1.066;2023-10-09T03:52:08;24.90;;;16.30;;
35558;SDS011;21661;50.794;-1.066;2023-10-09T03:54:34;21.63;;;15.05;;
35558;SDS011;21661;50.794;-1.066;2023-10-09T03:57:00;22.55;;;15.07;;
35558;SDS011;21661;50.794;-1.066;2023-10-09T03:59:26;23.02;;;15.38;;
35558;SDS011;21661;50.794;-1.066;2023-10-09T04:01:55;23.05;;;15.48;;
35558;SDS011;21661;50.794;-1.066;2023-10-09T04:04:23;25.20;;;15.95;;
35558;SDS011;21661;50.794;-1.066;2023-10-09T04:06:49;22.25;;;16.00;;
35558;SDS011;21661;50.794;-1.066;2023-10-09T04:09:18;24.60;;;16.10;;
35558;SDS011;21661;50.794;-1.066;2023-10-09T04:11:44;24.25;;;15.50;;
35558;SDS011;21661;50.794;-1.066;2023-10-09T04:14:21;21.60;;;14.73;;
35558;SDS011;21661;50.794;-1.066;2023-10-09T04:17:08;27.48;;;15.80;;
35558;SDS011;21661;50.794;-1.066;2023-10-09T04:19:52;22.58;;;14.90;;
35558;SDS011;21661;50.794;-1.066;2023-10-09T04:22:40;20.73;;;14.63;;
35558;SDS011;21661;50.794;-1.066;2023-10-09T04:25:24;21.73;;;14.80;;
35558;SDS011;21661;50.794;-1.066;2023-10-09T04:27:54;23.30;;;14.65;;
35558;SDS011;21661;50.794;-1.066;2023-10-09T04:30:39;22.48;;;14.98;;
35558;SDS011;21661;50.794;-1.066;2023-10-09T04:33:08;21.55;;;15.20;;
35558;SDS011;21661;50.794;-1.066;2023-10-09T04:36:02;23.30;;;15.55;;
35558;SDS011;21661;50.794;-1.066;2023-10-09T04:38:47;21.88;;;14.68;;
35558;SDS011;21661;50.794;-1.066;2023-10-09T04:41:39;22.27;;;13.73;;
35558;SDS011;21661;50.794;-1.066;2023-10-09T04:44:08;20.05;;;14.07;;
35558;SDS011;21661;50.794;-1.066;2023-10-09T04:47:00;22.95;;;14.38;;
35558;SDS011;21661;50.794;-1.066;2023-10-09T04:49:39;23.02;;;14.65;;
35558;SDS011;21661;50.794;-1.066;2023-10-09T04:52:17;22.75;;;14.25;;
35558;SDS011;21661;50.794;-1.066;2023-10-09T04:57:45;19.45;;;13.68;;
35558;SDS011;21661;50.794;-1.066;2023-10-09T05:00:25;21.70;;;13.68;;
35558;SDS011;21661;50.794;-1.066;2023-10-09T05:02:54;19.90;;;13.70;;
35558;SDS011;21661;50.794;-1.066;2023-10-09T05:05:29;20.83;;;14.25;;
35558;SDS011;21661;50.794;-1.066;2023-10-09T05:08:10;21.92;;;14.93;;
35558;SDS011;21661;50.794;-1.066;2023-10-09T05:10:52;23.15;;;14.88;;
35558;SDS011;21661;50.794;-1.066;2023-10-09T05:16:17;21.83;;;13.57;;
35558;SDS011;21661;50.794;-1.066;2023-10-09T05:18:47;19.45;;;13.85;;
35558;SDS011;21661;50.794;-1.066;2023-10-09T05:21:35;20.73;;;13.80;;
35558;SDS011;21661;50.794;-1.066;2023-10-09T05:24:09;19.42;;;13.23;;
35558;SDS011;21661;50.794;-1.066;2023-10-09T05:29:15;18.52;;;12.60;;
35558;SDS011;21661;50.794;-1.066;2023-10-09T05:31:58;17.90;;;12.45;;
35558;SDS011;21661;50.794;-1.066;2023-10-09T05:34:33;16.65;;;12.15;;
35558;SDS011;21661;50.794;-1.066;2023-10-09T05:37:02;18.40;;;12.07;;
35558;SDS011;21661;50.794;-1.066;2023-10-09T05:39:47;15.10;;;11.43;;
35558;SDS011;21661;50.794;-1.066;2023-10-09T05:45:06;17.95;;;12.75;;
35558;SDS011;21661;50.794;-1.066;2023-10-09T05:47:45;15.43;;;11.90;;
35558;SDS011;21661;50.794;-1.066;2023-10-09T05:50:32;17.30;;;12.45;;
35558;SDS011;21661;50.794;-1.066;2023-10-09T05:53:03;17.85;;;12.15;;
35558;SDS011;21661;50.794;-1.066;2023-10-09T05:55:29;17.10;;;12.43;;
35558;SDS011;21661;50.794;-1.066;2023-10-09T05:58:34;18.75;;;12.80;;
35558;SDS011;21661;50.794;-1.066;2023-10-09T06:01:26;16.58;;;12.45;;
35558;SDS011;21661;50.794;-1.066;2023-10-09T06:04:10;17.95;;;12.55;;
35558;SDS011;21661;50.794;-1.066;2023-10-09T06:06:43;17.67;;;12.43;;
35558;SDS011;21661;50.794;-1.066;2023-10-09T06:09:20;16.75;;;11.82;;
35558;SDS011;21661;50.794;-1.066;2023-10-09T06:11:47;19.02;;;12.73;;
35558;SDS011;21661;50.794;-1.066;2023-10-09T06:14:13;21.50;;;12.55;;
35558;SDS011;21661;50.794;-1.066;2023-10-09T06:16:50;17.52;;;12.52;;
35558;SDS011;21661;50.794;-1.066;2023-10-09T06:19:21;19.25;;;12.98;;
35558;SDS011;21661;50.794;-1.066;2023-10-09T06:21:47;16.75;;;11.90;;
35558;SDS011;21661;50.794;-1.066;2023-10-09T06:24:29;18.95;;;12.50;;
35558;SDS011;21661;50.794;-1.066;2023-10-09T06:27:09;18.23;;;12.60;;
35558;SDS011;21661;50.794;-1.066;2023-10-09T06:29:35;18.05;;;12.20;;
35558;SDS011;21661;50.794;-1.066;2023-10-09T06:32:01;15.32;;;11.95;;
35558;SDS011;21661;50.794;-1.066;2023-10-09T06:34:43;18.38;;;12.48;;
35558;SDS011;21661;50.794;-1.066;2023-10-09T06:37:22;18.77;;;12.45;;
35558;SDS011;21661;50.794;-1.066;2023-10-09T06:39:49;21.27;;;13.00;;
35558;SDS011;21661;50.794;-1.066;2023-10-09T06:42:21;19.40;;;13.25;;
35558;SDS011;21661;50.794;-1.066;2023-10-09T06:45:09;16.83;;;12.07;;
35558;SDS011;21661;50.794;-1.066;2023-10-09T06:47:38;19.77;;;13.07;;
35558;SDS011;21661;50.794;-1.066;2023-10-09T06:52:45;19.92;;;13.07;;
35558;SDS011;21661;50.794;-1.066;2023-10-09T06:55:43;16.80;;;11.27;;
35558;SDS011;21661;50.794;-1.066;2023-10-09T06:58:26;23.65;;;14.05;;
35558;SDS011;21661;50.794;-1.066;2023-10-09T07:00:52;20.15;;;12.35;;
35558;SDS011;21661;50.794;-1.066;2023-10-09T07:03:19;17.50;;;11.55;;
35558;SDS011;21661;50.794;-1.066;2023-10-09T07:06:02;17.77;;;11.60;;
35558;SDS011;21661;50.794;-1.066;2023-10-09T07:08:34;16.27;;;11.38;;
35558;SDS011;21661;50.794;-1.066;2023-10-09T07:11:04;17.05;;;11.35;;
35558;SDS011;21661;50.794;-1.066;2023-10-09T07:13:48;16.20;;;11.07;;
35558;SDS011;21661;50.794;-1.066;2023-10-09T07:16:21;16.88;;;10.35;;
35558;SDS011;21661;50.794;-1.066;2023-10-09T07:18:54;16.55;;;10.95;;
35558;SDS011;21661;50.794;-1.066;2023-10-09T07:21:34;18.58;;;9.77;;
35558;SDS011;21661;50.794;-1.066;2023-10-09T07:24:04;16.20;;;9.40;;
35558;SDS011;21661;50.794;-1.066;2023-10-09T07:26:40;15.25;;;9.77;;
35558;SDS011;21661;50.794;-1.066;2023-10-09T07:29:12;17.05;;;10.23;;
35558;SDS011;21661;50.794;-1.066;2023-10-09T07:31:42;17.05;;;9.90;;
35558;SDS011;21661;50.794;-1.066;2023-10-09T07:34:11;13.30;;;9.02;;
35558;SDS011;21661;50.794;-1.066;2023-10-09T07:36:55;13.90;;;8.63;;
35558;SDS011;21661;50.794;-1.066;2023-10-09T07:39:28;13.10;;;8.30;;
35558;SDS011;21661;50.794;-1.066;2023-10-09T07:41:59;12.90;;;8.70;;
35558;SDS011;21661;50.794;-1.066;2023-10-09T07:44:51;14.45;;;8.43;;
35558;SDS011;21661;50.794;-1.066;2023-10-09T07:47:22;12.88;;;8.10;;
35558;SDS011;21661;50.794;-1.066;2023-10-09T07:50:07;12.90;;;8.52;;
35558;SDS011;21661;50.794;-1.066;2023-10-09T07:52:36;13.77;;;7.90;;
35558;SDS011;21661;50.794;-1.066;2023-10-09T07:55:08;13.10;;;7.82;;
35558;SDS011;21661;50.794;-1.066;2023-10-09T07:57:51;15.07;;;8.75;;
35558;SDS011;21661;50.794;-1.066;2023-10-09T08:00:17;14.27;;;8.18;;
35558;SDS011;21661;50.794;-1.066;2023-10-09T08:03:01;13.50;;;8.93;;
35558;SDS011;21661;50.794;-1.066;2023-10-09T08:05:48;16.38;;;8.68;;
35558;SDS011;21661;50.794;-1.066;2023-10-09T08:08:17;13.40;;;8.52;;
35558;SDS011;21661;50.794;-1.066;2023-10-09T08:11:03;15.13;;;8.70;;
35558;SDS011;21661;50.794;-1.066;2023-10-09T08:13:47;13.68;;;8.70;;
35558;SDS011;21661;50.794;-1.066;2023-10-09T08:16:25;14.32;;;8.25;;
35558;SDS011;21661;50.794;-1.066;2023-10-09T08:19:03;14.32;;;8.30;;
35558;SDS011;21661;50.794;-1.066;2023-10-09T08:21:49;11.85;;;7.65;;
35558;SDS011;21661;50.794;-1.066;2023-10-09T08:24:33;13.23;;;8.25;;
35558;SDS011;21661;50.794;-1.066;2023-10-09T08:27:06;18.90;;;8.38;;
35558;SDS011;21661;50.794;-1.066;2023-10-09T08:30:11;15.30;;;8.70;;
35558;SDS011;21661;50.794;-1.066;2023-10-09T08:32:46;12.35;;;8.10;;
35558;SDS011;21661;50.794;-1.066;2023-10-09T08:35:47;17.17;;;8.07;;
35558;SDS011;21661;50.794;-1.066;2023-10-09T08:38:13;16.40;;;8.02;;
35558;SDS011;21661;50.794;-1.066;2023-10-09T08:40:40;15.35;;;8.60;;
35558;SDS011;21661;50.794;-1.066;2023-10-09T08:48:13;13.88;;;8.85;;
35558;SDS011;21661;50.794;-1.066;2023-10-09T08:50:51;16.25;;;10.32;;
35558;SDS011;21661;50.794;-1.066;2023-10-09T08:53:21;20.02;;;10.65;;
35558;SDS011;21661;50.794;-1.066;2023-10-09T08:55:48;13.93;;;9.05;;
35558;SDS011;21661;50.794;-1.066;2023-10-09T08:58:14;15.93;;;9.55;;
35558;SDS011;21661;50.794;-1.066;2023-10-09T09:00:51;15.65;;;8.63;;
35558;SDS011;21661;50.794;-1.066;2023-10-09T09:03:20;16.50;;;9.13;;
35558;SDS011;21661;50.794;-1.066;2023-10-09T09:05:56;14.95;;;7.93;;
35558;SDS011;21661;50.794;-1.066;2023-10-09T09:08:26;13.57;;;8.55;;
35558;SDS011;21661;50.794;-1.066;2023-10-09T09:13:59;17.00;;;9.13;;
35558;SDS011;21661;50.794;-1.066;2023-10-09T09:16:43;16.77;;;8.68;;
35558;SDS011;21661;50.794;-1.066;2023-10-09T09:19:13;14.43;;;8.40;;
35558;SDS011;21661;50.794;-1.066;2023-10-09T09:21:49;16.20;;;9.07;;
35558;SDS011;21661;50.794;-1.066;2023-10-09T09:24:35;16.65;;;9.10;;
35558;SDS011;21661;50.794;-1.066;2023-10-09T09:27:02;13.20;;;8.93;;
35558;SDS011;21661;50.794;-1.066;2023-10-09T09:29:42;15.98;;;8.95;;
35558;SDS011;21661;50.794;-1.066;2023-10-09T09:32:17;13.50;;;8.48;;
35558;SDS011;21661;50.794;-1.066;2023-10-09T09:34:55;16.27;;;8.27;;
35558;SDS011;21661;50.794;-1.066;2023-10-09T09:37:26;18.63;;;9.15;;
35558;SDS011;21661;50.794;-1.066;2023-10-09T09:40:00;14.82;;;8.30;;
35558;SDS011;21661;50.794;-1.066;2023-10-09T09:42:45;13.93;;;8.00;;
35558;SDS011;21661;50.794;-1.066;2023-10-09T09:45:13;15.70;;;8.43;;
35558;SDS011;21661;50.794;-1.066;2023-10-09T09:47:39;18.77;;;8.43;;
35558;SDS011;21661;50.794;-1.066;2023-10-09T09:50:12;14.15;;;8.15;;
35558;SDS011;21661;50.794;-1.066;2023-10-09T09:52:49;13.52;;;8.93;;
35558;SDS011;21661;50.794;-1.066;2023-10-09T09:55:18;12.23;;;8.07;;
35558;SDS011;21661;50.794;-1.066;2023-10-09T09:57:47;18.33;;;9.60;;
35558;SDS011;21661;50.794;-1.066;2023-10-09T10:00:16;21.98;;;9.52;;
35558;SDS011;21661;50.794;-1.066;2023-10-09T10:03:05;16.48;;;9.43;;
35558;SDS011;21661;50.794;-1.066;2023-10-09T10:05:34;17.35;;;9.18;;
35558;SDS011;21661;50.794;-1.066;2023-10-09T10:08:02;13.82;;;8.80;;
35558;SDS011;21661;50.794;-1.066;2023-10-09T10:10:42;15.45;;;9.10;;
35558;SDS011;21661;50.794;-1.066;2023-10-09T10:13:17;16.73;;;8.98;;
35558;SDS011;21661;50.794;-1.066;2023-10-09T10:18:33;17.73;;;9.13;;
35558;SDS011;21661;50.794;-1.066;2023-10-09T10:21:36;15.93;;;9.45;;
35558;SDS011;21661;50.794;-1.066;2023-10-09T10:24:51;15.27;;;8.85;;
35558;SDS011;21661;50.794;-1.066;2023-10-09T10:29:43;16.40;;;8.85;;
35558;SDS011;21661;50.794;-1.066;2023-10-09T10:32:11;13.68;;;8.40;;
35558;SDS011;21661;50.794;-1.066;2023-10-09T10:37:12;15.63;;;9.90;;
35558;SDS011;21661;50.794;-1.066;2023-10-09T10:39:49;15.90;;;9.18;;
35558;SDS011;21661;50.794;-1.066;2023-10-09T10:42:15;18.02;;;9.05;;
35558;SDS011;21661;50.794;-1.066;2023-10-09T10:44:59;19.67;;;9.68;;
35558;SDS011;21661;50.794;-1.066;2023-10-09T10:47:48;16.67;;;10.35;;
35558;SDS011;21661;50.794;-1.066;2023-10-09T10:50:14;17.75;;;9.38;;
35558;SDS011;21661;50.794;-1.066;2023-10-09T10:53:07;16.67;;;9.33;;
35558;SDS011;21661;50.794;-1.066;2023-10-09T10:55:38;15.25;;;8.45;;
35558;SDS011;21661;50.794;-1.066;2023-10-09T10:58:19;16.95;;;9.48;;
35558;SDS011;21661;50.794;-1.066;2023-10-09T11:01:00;15.50;;;9.00;;
35558;SDS011;21661;50.794;-1.066;2023-10-09T11:03:37;16.58;;;8.90;;
35558;SDS011;21661;50.794;-1.066;2023-10-09T11:06:28;16.83;;;9.25;;
35558;SDS011;21661;50.794;-1.066;2023-10-09T11:09:05;22.50;;;9.82;;
35558;SDS011;21661;50.794;-1.066;2023-10-09T11:11:48;14.75;;;9.20;;
35558;SDS011;21661;50.794;-1.066;2023-10-09T11:14:15;14.32;;;8.30;;
35558;SDS011;21661;50.794;-1.066;2023-10-09T11:16:42;16.40;;;8.65;;
35558;SDS011;21661;50.794;-1.066;2023-10-09T11:19:12;16.00;;;9.52;;
35558;SDS011;21661;50.794;-1.066;2023-10-09T11:22:02;16.20;;;9.27;;
35558;SDS011;21661;50.794;-1.066;2023-10-09T11:24:32;15.02;;;9.23;;
35558;SDS011;21661;50.794;-1.066;2023-10-09T11:26:59;14.70;;;9.85;;
35558;SDS011;21661;50.794;-1.066;2023-10-09T11:29:32;15.77;;;9.07;;
35558;SDS011;21661;50.794;-1.066;2023-10-09T11:32:08;17.13;;;9.50;;
35558;SDS011;21661;50.794;-1.066;2023-10-09T11:34:47;13.80;;;9.35;;
35558;SDS011;21661;50.794;-1.066;2023-10-09T11:37:21;13.10;;;8.53;;
35558;SDS011;21661;50.794;-1.066;2023-10-09T11:39:54;15.25;;;9.82;;
35558;SDS011;21661;50.794;-1.066;2023-10-09T11:42:21;17.20;;;9.85;;
35558;SDS011;21661;50.794;-1.066;2023-10-09T11:45:03;15.38;;;9.20;;
35558;SDS011;21661;50.794;-1.066;2023-10-09T11:47:49;16.40;;;9.73;;
35558;SDS011;21661;50.794;-1.066;2023-10-09T11:53:28;14.95;;;9.18;;
35558;SDS011;21661;50.794;-1.066;2023-10-09T11:56:04;16.45;;;9.25;;
35558;SDS011;21661;50.794;-1.066;2023-10-09T11:58:30;17.75;;;9.07;;
35558;SDS011;21661;50.794;-1.066;2023-10-09T12:00:59;16.88;;;9.43;;
35558;SDS011;21661;50.794;-1.066;2023-10-09T12:03:41;16.85;;;10.32;;
35558;SDS011;21661;50.794;-1.066;2023-10-09T12:06:10;15.05;;;9.27;;
35558;SDS011;21661;50.794;-1.066;2023-10-09T12:08:45;15.88;;;9.27;;
35558;SDS011;21661;50.794;-1.066;2023-10-09T12:11:14;15.68;;;9.10;;
35558;SDS011;21661;50.794;-1.066;2023-10-09T12:13:48;14.20;;;9.02;;
35558;SDS011;21661;50.794;-1.066;2023-10-09T12:16:14;15.18;;;9.18;;
35558;SDS011;21661;50.794;-1.066;2023-10-09T12:18:40;15.27;;;9.98;;
35558;SDS011;21661;50.794;-1.066;2023-10-09T12:21:07;14.75;;;8.88;;
35558;SDS011;21661;50.794;-1.066;2023-10-09T12:23:40;13.30;;;9.23;;
35558;SDS011;21661;50.794;-1.066;2023-10-09T12:26:09;13.15;;;8.88;;
35558;SDS011;21661;50.794;-1.066;2023-10-09T12:28:39;13.55;;;8.45;;
35558;SDS011;21661;50.794;-1.066;2023-10-09T12:31:15;16.00;;;9.18;;
35558;SDS011;21661;50.794;-1.066;2023-10-09T12:33:44;14.63;;;8.93;;
35558;SDS011;21661;50.794;-1.066;2023-10-09T12:36:12;13.98;;;8.90;;
35558;SDS011;21661;50.794;-1.066;2023-10-09T12:38:44;13.10;;;8.27;;
35558;SDS011;21661;50.794;-1.066;2023-10-09T12:41:15;13.60;;;9.00;;
35558;SDS011;21661;50.794;-1.066;2023-10-09T12:43:51;12.68;;;8.25;;
35558;SDS011;21661;50.794;-1.066;2023-10-09T12:46:18;15.32;;;8.23;;
35558;SDS011;21661;50.794;-1.066;2023-10-09T12:48:48;17.73;;;8.07;;
35558;SDS011;21661;50.794;-1.066;2023-10-09T12:51:14;15.63;;;8.63;;
35558;SDS011;21661;50.794;-1.066;2023-10-09T12:53:44;17.77;;;8.18;;
35558;SDS011;21661;50.794;-1.066;2023-10-09T12:56:11;16.50;;;8.25;;
35558;SDS011;21661;50.794;-1.066;2023-10-09T12:58:37;14.30;;;8.80;;
35558;SDS011;21661;50.794;-1.066;2023-10-09T13:01:03;12.45;;;7.63;;
35558;SDS011;21661;50.794;-1.066;2023-10-09T13:03:39;14.38;;;7.70;;
35558;SDS011;21661;50.794;-1.066;2023-10-09T13:06:05;12.93;;;7.72;;
35558;SDS011;21661;50.794;-1.066;2023-10-09T13:08:37;11.27;;;7.93;;
35558;SDS011;21661;50.794;-1.066;2023-10-09T13:11:06;13.35;;;7.65;;
35558;SDS011;21661;50.794;-1.066;2023-10-09T13:13:36;14.47;;;8.57;;
35558;SDS011;21661;50.794;-1.066;2023-10-09T13:16:13;15.90;;;7.90;;
35558;SDS011;21661;50.794;-1.066;2023-10-09T13:18:48;11.27;;;6.80;;
35558;SDS011;21661;50.794;-1.066;2023-10-09T13:21:34;11.80;;;6.72;;
35558;SDS011;21661;50.794;-1.066;2023-10-09T13:24:02;14.18;;;7.47;;
35558;SDS011;21661;50.794;-1.066;2023-10-09T13:26:29;13.65;;;8.15;;
35558;SDS011;21661;50.794;-1.066;2023-10-09T13:29:01;17.30;;;8.13;;
35558;SDS011;21661;50.794;-1.066;2023-10-09T13:31:27;13.13;;;8.30;;
35558;SDS011;21661;50.794;-1.066;2023-10-09T13:33:56;15.43;;;7.75;;
35558;SDS011;21661;50.794;-1.066;2023-10-09T13:36:24;12.52;;;7.68;;
35558;SDS011;21661;50.794;-1.066;2023-10-09T13:39:03;13.50;;;7.65;;
35558;SDS011;21661;50.794;-1.066;2023-10-09T13:41:49;13.57;;;7.68;;
35558;SDS011;21661;50.794;-1.066;2023-10-09T13:44:23;15.23;;;7.60;;
35558;SDS011;21661;50.794;-1.066;2023-10-09T13:46:53;15.05;;;8.35;;
35558;SDS011;21661;50.794;-1.066;2023-10-09T13:49:20;12.52;;;7.90;;
35558;SDS011;21661;50.794;-1.066;2023-10-09T13:51:48;11.73;;;7.43;;
35558;SDS011;21661;50.794;-1.066;2023-10-09T13:54:21;11.77;;;7.18;;
35558;SDS011;21661;50.794;-1.066;2023-10-09T13:56:56;14.07;;;7.72;;
35558;SDS011;21661;50.794;-1.066;2023-10-09T13:59:22;11.98;;;7.53;;
35558;SDS011;21661;50.794;-1.066;2023-10-09T14:01:50;14.15;;;7.72;;
35558;SDS011;21661;50.794;-1.066;2023-10-09T14:04:19;12.32;;;8.15;;
35558;SDS011;21661;50.794;-1.066;2023-10-09T14:06:48;14.80;;;8.25;;
35558;SDS011;21661;50.794;-1.066;2023-10-09T14:09:21;16.05;;;8.10;;
35558;SDS011;21661;50.794;-1.066;2023-10-09T14:14:36;16.52;;;7.88;;
35558;SDS011;21661;50.794;-1.066;2023-10-09T14:17:06;15.48;;;7.53;;
35558;SDS011;21661;50.794;-1.066;2023-10-09T14:19:40;19.02;;;7.65;;
35558;SDS011;21661;50.794;-1.066;2023-10-09T14:22:13;15.68;;;8.80;;
35558;SDS011;21661;50.794;-1.066;2023-10-09T14:24:43;16.50;;;7.72;;
35558;SDS011;21661;50.794;-1.066;2023-10-09T14:27:16;13.10;;;7.72;;
35558;SDS011;21661;50.794;-1.066;2023-10-09T14:29:49;12.73;;;7.60;;
35558;SDS011;21661;50.794;-1.066;2023-10-09T14:32:14;13.90;;;7.78;;
35558;SDS011;21661;50.794;-1.066;2023-10-09T14:34:41;13.43;;;7.72;;
35558;SDS011;21661;50.794;-1.066;2023-10-09T14:37:19;12.63;;;7.63;;
35558;SDS011;21661;50.794;-1.066;2023-10-09T14:39:46;14.00;;;8.07;;
35558;SDS011;21661;50.794;-1.066;2023-10-09T14:42:15;13.80;;;7.95;;
35558;SDS011;21661;50.794;-1.066;2023-10-09T14:44:41;14.23;;;7.43;;
35558;SDS011;21661;50.794;-1.066;2023-10-09T14:47:10;12.98;;;7.20;;
35558;SDS011;21661;50.794;-1.066;2023-10-09T14:49:36;13.60;;;7.78;;
35558;SDS011;21661;50.794;-1.066;2023-10-09T14:52:03;12.40;;;7.97;;
35558;SDS011;21661;50.794;-1.066;2023-10-09T14:54:33;13.85;;;7.18;;
35558;SDS011;21661;50.794;-1.066;2023-10-09T14:56:59;11.20;;;6.95;;
35558;SDS011;21661;50.794;-1.066;2023-10-09T14:59:25;14.23;;;7.00;;
35558;SDS011;21661;50.794;-1.066;2023-10-09T15:01:50;14.15;;;7.13;;
35558;SDS011;21661;50.794;-1.066;2023-10-09T15:04:18;12.68;;;7.10;;
35558;SDS011;21661;50.794;-1.066;2023-10-09T15:06:45;14.32;;;6.30;;
35558;SDS011;21661;50.794;-1.066;2023-10-09T15:09:14;13.23;;;6.80;;
35558;SDS011;21661;50.794;-1.066;2023-10-09T15:11:54;10.95;;;6.20;;
35558;SDS011;21661;50.794;-1.066;2023-10-09T15:14:20;13.15;;;6.55;;
35558;SDS011;21661;50.794;-1.066;2023-10-09T15:16:46;11.40;;;6.25;;
35558;SDS011;21661;50.794;-1.066;2023-10-09T15:19:12;11.18;;;6.20;;
35558;SDS011;21661;50.794;-1.066;2023-10-09T15:21:39;13.00;;;6.53;;
35558;SDS011;21661;50.794;-1.066;2023-10-09T15:24:09;12.55;;;6.60;;
35558;SDS011;21661;50.794;-1.066;2023-10-09T15:26:37;13.63;;;6.50;;